VQTU weather

Thimphu Heliport
Thimphu, Thimphu, Bhutan

Public forecast

Using degrees Celsius for public forecast. Weather courtesy of forecast.io.

METAR (pilot weather report)

Report is more than 6 hours old.

Closest report is Paro Airport, 12.6 nm (23.4 km) WSW. Retrieved 2019/09/19 11:00 UTC (7 hours ago):

VQPR 191100Z VRB02KT 9999 SCT030 BKN080 22/13 Q1021

TAF (pilot weather forecast)

Closest forecast is Bagdogra Airport, 84.7 nm (156.8 km) WSW. Retrieved 2019/09/19 12:30 UTC (6 hours ago):

TAF VEBD 190930Z 1912/1924 10008KT 6000 SCT080 BKN090 TEMPO 1914/1916 FEW030TCU/CB